Time;durP1;ratioP1;P1;durP2;ratioP2;P2;SDS_P1;SDS_P2;PMS_P1;PMS_P2;Temp;Humidity;BMP_temperature;BMP_pressure;BME280_temperature;BME280_humidity;BME280_pressure;Samples;Min_cycle;Max_cycle;Signal;HPM_P1;HPM_P2
2024/04/10 00:00:13;;;;;;;17.00;15.60;;;10.40;80.40;;;;;;5490190;26;20311;-86
2024/04/10 00:02:40;;;;;;;17.97;16.37;;;10.50;80.50;;;;;;5489800;26;20621;-86
2024/04/10 00:05:07;;;;;;;18.83;16.97;;;10.50;80.40;;;;;;5489798;26;20211;-87
2024/04/10 00:07:32;;;;;;;18.23;16.70;;;10.60;80.50;;;;;;5487998;26;20218;-86
2024/04/10 00:09:58;;;;;;;18.93;17.10;;;10.50;80.90;;;;;;5488682;26;20253;-86
2024/04/10 00:12:23;;;;;;;19.50;17.93;;;10.50;80.30;;;;;;5493463;26;20654;-88
2024/04/10 00:14:49;;;;;;;20.47;16.97;;;10.60;80.20;;;;;;5494219;26;20223;-86
2024/04/10 00:17:14;;;;;;;21.10;16.67;;;10.50;80.60;;;;;;5493452;26;20695;-86
2024/04/10 00:19:40;;;;;;;19.07;17.33;;;10.50;80.90;;;;;;5493482;26;20283;-87
2024/04/10 00:22:09;;;;;;;18.77;17.47;;;10.60;80.60;;;;;;5493264;26;20211;-86
2024/04/10 00:24:34;;;;;;;19.13;17.50;;;10.60;80.20;;;;;;5491268;26;20227;-86
2024/04/10 00:27:00;;;;;;;19.00;17.60;;;10.60;79.90;;;;;;5493412;26;20261;-86
2024/04/10 00:29:25;;;;;;;19.10;17.47;;;10.60;79.10;;;;;;5493269;26;20211;-88
2024/04/10 00:31:51;;;;;;;20.80;19.03;;;10.60;80.00;;;;;;5493302;26;20261;-86
2024/04/10 00:34:17;;;;;;;19.70;17.93;;;10.60;79.60;;;;;;5492974;26;20242;-86
2024/04/10 00:36:43;;;;;;;19.93;17.93;;;10.60;79.80;;;;;;5491030;26;20803;-86
2024/04/10 00:39:09;;;;;;;19.10;17.13;;;10.60;80.30;;;;;;5492995;26;20222;-86
2024/04/10 00:41:35;;;;;;;19.00;17.27;;;10.50;80.20;;;;;;5492910;26;20216;-87
2024/04/10 00:44:00;;;;;;;21.80;19.07;;;10.60;80.90;;;;;;5492799;26;20318;-87
2024/04/10 00:46:27;;;;;;;19.53;17.73;;;10.50;80.40;;;;;;5492783;26;20223;-87
2024/04/10 00:48:54;;;;;;;19.80;17.90;;;10.60;80.20;;;;;;5492641;26;20246;-88
2024/04/10 00:51:22;;;;;;;18.03;16.53;;;10.50;80.80;;;;;;5493206;26;20215;-86
2024/04/10 00:53:48;;;;;;;18.00;16.27;;;10.50;80.70;;;;;;5492820;26;20576;-86
2024/04/10 00:56:15;;;;;;;19.03;17.33;;;10.50;81.00;;;;;;5492658;26;20215;-86
2024/04/10 00:58:41;;;;;;;19.50;17.83;;;10.50;80.90;;;;;;5492705;26;20660;-86
2024/04/10 01:01:09;;;;;;;18.13;16.70;;;10.40;81.00;;;;;;5493028;26;20215;-86
2024/04/10 01:03:36;;;;;;;18.00;16.60;;;10.40;81.40;;;;;;5492334;26;20676;-86
2024/04/10 01:06:03;;;;;;;19.33;17.37;;;10.40;80.80;;;;;;5490837;26;20742;-86
2024/04/10 01:08:30;;;;;;;20.00;18.07;;;10.50;81.00;;;;;;5492641;26;20319;-86
2024/04/10 01:10:58;;;;;;;19.20;17.37;;;10.50;80.80;;;;;;5492603;26;20212;-87
2024/04/10 01:13:25;;;;;;;17.97;16.37;;;10.40;80.80;;;;;;5492795;26;20297;-87
2024/04/10 01:15:50;;;;;;;18.47;16.70;;;10.40;81.20;;;;;;5492982;26;20215;-87
2024/04/10 01:18:16;;;;;;;18.40;16.60;;;10.30;81.90;;;;;;5492265;26;20640;-86
2024/04/10 01:20:41;;;;;;;16.60;15.10;;;10.30;82.40;;;;;;5492709;26;20215;-87
2024/04/10 01:23:07;;;;;;;16.80;14.93;;;10.20;83.10;;;;;;5491433;26;20227;-87
2024/04/10 01:25:32;;;;;;;17.80;15.97;;;10.20;83.10;;;;;;5492533;26;20245;-87
2024/04/10 01:27:58;;;;;;;17.37;15.73;;;10.30;82.80;;;;;;5493083;26;20211;-88
2024/04/10 01:30:24;;;;;;;26.03;18.00;;;10.30;82.40;;;;;;5492771;26;20249;-87
2024/04/10 01:32:50;;;;;;;18.97;17.23;;;10.30;81.70;;;;;;5492471;26;20731;-87
2024/04/10 01:35:16;;;;;;;20.07;17.13;;;10.30;82.10;;;;;;5492164;26;20215;-86
2024/04/10 01:37:42;;;;;;;19.23;17.50;;;10.30;82.50;;;;;;5492311;26;20227;-87
2024/04/10 01:40:08;;;;;;;19.53;17.83;;;10.30;81.90;;;;;;5492348;26;20272;-86
2024/04/10 01:42:33;;;;;;;18.67;17.00;;;10.30;82.10;;;;;;5490275;26;20329;-86
2024/04/10 01:45:01;;;;;;;21.90;17.93;;;10.30;81.80;;;;;;5490501;26;20222;-86
2024/04/10 01:47:27;;;;;;;18.53;16.70;;;10.30;81.80;;;;;;5492313;26;20214;-86
2024/04/10 01:49:52;;;;;;;20.07;16.47;;;10.30;82.00;;;;;;5492249;26;20254;-87
2024/04/10 01:52:18;;;;;;;18.00;14.93;;;10.30;83.00;;;;;;5490472;26;20227;-87
2024/04/10 01:54:46;;;;;;;14.97;13.70;;;10.10;84.00;;;;;;5492301;26;20234;-86
2024/04/10 01:57:11;;;;;;;13.33;12.03;;;10.00;85.50;;;;;;5491970;26;20215;-86
2024/04/10 01:59:37;;;;;;;11.60;10.57;;;9.80;86.50;;;;;;5492001;26;20211;-87
2024/04/10 02:02:03;;;;;;;10.70;9.90;;;9.60;87.70;;;;;;5492207;26;20573;-86
2024/04/10 02:04:29;;;;;;;14.73;10.47;;;9.50;87.90;;;;;;5491472;26;20223;-86
2024/04/10 02:06:55;;;;;;;14.50;10.60;;;9.50;87.90;;;;;;5491930;26;20262;-86
2024/04/10 02:09:20;;;;;;;14.53;10.50;;;9.50;88.60;;;;;;5492038;26;20219;-86
2024/04/10 02:11:46;;;;;;;13.80;10.10;;;9.40;88.80;;;;;;5491984;26;20215;-86
2024/04/10 02:14:11;;;;;;;11.00;9.90;;;9.40;88.90;;;;;;5489794;26;20266;-87
2024/04/10 02:16:37;;;;;;;18.67;11.70;;;9.50;89.00;;;;;;5491745;26;20266;-86
2024/04/10 02:19:02;;;;;;;13.57;11.40;;;9.50;89.00;;;;;;5492067;26;20571;-86
2024/04/10 02:21:29;;;;;;;17.07;9.90;;;9.40;89.70;;;;;;5489692;26;20319;-86
2024/04/10 02:23:55;;;;;;;11.57;8.87;;;9.30;89.80;;;;;;5491885;26;20235;-86
2024/04/10 02:26:21;;;;;;;18.80;9.43;;;9.20;89.50;;;;;;5491567;26;20253;-87
2024/04/10 02:28:46;;;;;;;11.43;9.10;;;9.10;90.10;;;;;;5489591;26;20223;-88
2024/04/10 02:31:12;;;;;;;9.90;7.83;;;8.90;90.00;;;;;;5491017;26;20207;-86
2024/04/10 02:33:37;;;;;;;10.43;9.07;;;8.90;89.70;;;;;;5490851;26;20227;-87
2024/04/10 02:36:07;;;;;;;14.30;9.30;;;9.00;89.60;;;;;;5491330;26;20322;-86
2024/04/10 02:38:34;;;;;;;11.80;9.00;;;8.90;89.40;;;;;;5491457;26;20187;-86
2024/04/10 02:41:00;;;;;;;14.10;9.17;;;9.00;89.00;;;;;;5489099;26;20264;-87
2024/04/10 02:43:25;;;;;;;14.30;9.40;;;9.00;89.00;;;;;;5491117;26;20224;-87
2024/04/10 02:45:56;;;;;;;9.50;8.90;;;9.00;88.30;;;;;;5491628;26;20323;-86
2024/04/10 02:48:22;;;;;;;9.80;7.13;;;9.00;88.40;;;;;;5491500;26;20641;-87
2024/04/10 02:50:47;;;;;;;5.63;5.20;;;9.00;87.20;;;;;;5491896;26;20215;-87
2024/04/10 02:53:13;;;;;;;9.30;5.77;;;9.00;86.90;;;;;;5489428;26;20273;-87
2024/04/10 02:55:46;;;;;;;8.13;5.67;;;8.90;86.40;;;;;;5491548;26;20319;-86
2024/04/10 02:58:12;;;;;;;8.77;4.97;;;8.90;86.60;;;;;;5491178;26;20275;-86
2024/04/10 03:00:48;;;;;;;7.63;5.40;;;8.80;87.20;;;;;;5491084;26;20319;-86
2024/04/10 03:03:14;;;;;;;6.40;5.20;;;8.80;87.30;;;;;;5491432;26;20714;-86
2024/04/10 03:05:41;;;;;;;8.67;5.23;;;8.70;87.10;;;;;;5491017;26;20318;-86
2024/04/10 03:08:07;;;;;;;6.80;4.13;;;8.70;87.00;;;;;;5489554;26;20242;-87
2024/04/10 03:10:33;;;;;;;13.43;5.30;;;8.70;86.90;;;;;;5491087;26;20215;-87
2024/04/10 03:12:59;;;;;;;6.93;5.90;;;8.80;86.80;;;;;;5491317;26;20810;-86
2024/04/10 03:15:25;;;;;;;7.23;4.97;;;8.80;86.90;;;;;;5491750;26;20269;-86
2024/04/10 03:17:51;;;;;;;9.93;5.03;;;8.80;87.40;;;;;;5491077;26;20223;-87
2024/04/10 03:20:17;;;;;;;8.70;5.10;;;8.80;88.10;;;;;;5491406;26;20318;-86
2024/04/10 03:22:42;;;;;;;9.33;5.03;;;8.70;88.40;;;;;;5489160;26;20705;-86
2024/04/10 03:25:08;;;;;;;4.87;4.47;;;8.60;88.60;;;;;;5490857;26;20215;-85
2024/04/10 03:27:33;;;;;;;11.17;4.80;;;8.50;88.70;;;;;;5490488;26;20207;-86
2024/04/10 03:29:59;;;;;;;11.60;5.07;;;8.50;88.70;;;;;;5490751;26;20315;-86
2024/04/10 03:32:27;;;;;;;9.53;8.47;;;8.50;88.60;;;;;;5488552;26;20223;-86
2024/04/10 03:34:53;;;;;;;11.50;8.53;;;8.60;88.70;;;;;;5490829;26;20307;-86
2024/04/10 03:37:19;;;;;;;10.03;8.17;;;8.60;88.60;;;;;;5490436;26;20231;-87
2024/04/10 03:39:44;;;;;;;12.17;8.90;;;8.70;87.80;;;;;;5491253;26;20222;-86
2024/04/10 03:42:10;;;;;;;9.13;8.30;;;8.80;87.70;;;;;;5490332;26;20262;-86
2024/04/10 03:44:35;;;;;;;8.40;7.57;;;8.70;87.80;;;;;;5489473;26;20594;-86
2024/04/10 03:47:02;;;;;;;20.27;8.40;;;8.70;87.70;;;;;;5490708;26;20211;-86
2024/04/10 03:49:28;;;;;;;9.33;8.17;;;8.70;87.70;;;;;;5490441;26;20805;-87
2024/04/10 03:51:54;;;;;;;13.20;9.03;;;8.80;87.80;;;;;;5490242;26;20583;-86
2024/04/10 03:54:19;;;;;;;10.10;8.07;;;8.80;87.70;;;;;;5490086;26;20257;-86
2024/04/10 03:56:45;;;;;;;9.83;8.27;;;8.80;87.90;;;;;;5490319;26;20323;-86
2024/04/10 03:59:10;;;;;;;12.50;7.70;;;8.80;87.90;;;;;;5490102;26;20211;-87
2024/04/10 04:01:36;;;;;;;10.53;7.83;;;8.80;88.10;;;;;;5490230;26;20210;-86
2024/04/10 04:04:03;;;;;;;11.37;8.33;;;8.80;88.10;;;;;;5489791;26;20265;-86
2024/04/10 04:06:30;;;;;;;11.90;8.03;;;8.80;88.00;;;;;;5490349;26;20261;-87
2024/04/10 04:08:56;;;;;;;13.00;8.47;;;8.80;88.30;;;;;;5489680;26;20212;-86
2024/04/10 04:11:21;;;;;;;12.23;8.50;;;8.80;88.40;;;;;;5489688;26;20262;-86
2024/04/10 04:13:47;;;;;;;10.40;9.00;;;8.80;88.50;;;;;;5489736;26;20223;-86
2024/04/10 04:16:13;;;;;;;6.60;4.27;;;8.80;88.40;;;;;;5489641;26;20254;-86
2024/04/10 04:18:38;;;;;;;9.23;4.50;;;8.80;88.50;;;;;;5489692;26;20211;-86
2024/04/10 04:21:04;;;;;;;9.73;4.63;;;8.80;88.80;;;;;;5489878;26;20566;-85
2024/04/10 04:23:30;;;;;;;11.60;4.53;;;8.70;89.00;;;;;;5487973;26;20227;-85
2024/04/10 04:25:55;;;;;;;16.13;4.97;;;8.70;88.50;;;;;;5487747;26;20241;-86
2024/04/10 04:28:21;;;;;;;7.83;4.63;;;8.70;88.70;;;;;;5487749;26;20275;-86
2024/04/10 04:30:50;;;;;;;9.47;5.40;;;8.60;88.80;;;;;;5489770;26;20215;-87
2024/04/10 04:33:18;;;;;;;14.87;5.97;;;8.70;88.70;;;;;;5489682;26;20227;-88
2024/04/10 04:35:43;;;;;;;11.83;4.80;;;8.70;88.60;;;;;;5487414;26;20257;-85
2024/04/10 04:38:09;;;;;;;14.97;5.77;;;8.70;88.60;;;;;;5489432;26;20211;-86
2024/04/10 04:40:35;;;;;;;15.23;5.10;;;8.80;88.40;;;;;;5489346;26;20323;-86
2024/04/10 04:43:10;;;;;;;11.00;5.50;;;8.80;88.70;;;;;;5487469;26;20269;-87
2024/04/10 04:45:36;;;;;;;10.47;5.23;;;8.80;88.90;;;;;;5489763;26;20176;-86
2024/04/10 04:48:06;;;;;;;13.70;5.80;;;8.70;88.60;;;;;;5490088;26;20215;-86
2024/04/10 04:50:32;;;;;;;9.53;5.40;;;8.70;88.40;;;;;;5489426;26;20287;-87
2024/04/10 04:52:57;;;;;;;14.87;5.50;;;8.70;88.30;;;;;;5489605;26;20579;-86
2024/04/10 04:55:23;;;;;;;9.83;5.03;;;8.70;88.20;;;;;;5487056;26;20656;-86
2024/04/10 04:57:48;;;;;;;13.53;5.17;;;8.70;88.10;;;;;;5493189;26;20554;-85
2024/04/10 05:00:14;;;;;;;7.43;4.93;;;8.70;88.40;;;;;;5492667;26;20738;-86
2024/04/10 05:02:43;;;;;;;14.20;6.07;;;8.70;88.40;;;;;;5493112;26;20258;-85
2024/04/10 05:05:15;;;;;;;15.93;5.90;;;8.70;88.00;;;;;;5492709;26;20271;-85
2024/04/10 05:07:41;;;;;;;12.43;5.70;;;8.70;88.20;;;;;;5491300;26;20223;-86
2024/04/10 05:10:08;;;;;;;14.30;5.43;;;8.80;88.20;;;;;;5490607;26;20219;-86
2024/04/10 05:12:34;;;;;;;10.07;5.27;;;8.80;87.50;;;;;;5493192;26;20212;-86
2024/04/10 05:15:00;;;;;;;12.10;5.27;;;8.80;87.60;;;;;;5490558;26;20219;-85
2024/04/10 05:17:26;;;;;;;11.27;5.93;;;8.80;87.10;;;;;;5492471;26;20212;-87
2024/04/10 05:19:51;;;;;;;15.93;6.20;;;8.90;87.00;;;;;;5492721;26;20318;-86
2024/04/10 05:22:17;;;;;;;11.90;6.43;;;8.80;87.20;;;;;;5492481;26;20211;-87
2024/04/10 05:24:43;;;;;;;18.70;9.13;;;8.70;88.10;;;;;;5490973;26;20266;-87
2024/04/10 05:27:20;;;;;;;11.43;9.30;;;8.70;88.40;;;;;;5490692;26;20223;-86
2024/04/10 05:29:46;;;;;;;18.77;9.57;;;8.70;87.60;;;;;;5493049;26;20206;-85
2024/04/10 05:32:12;;;;;;;21.70;8.73;;;8.70;87.80;;;;;;5492722;26;20270;-86
2024/04/10 05:34:38;;;;;;;18.17;10.20;;;8.70;88.00;;;;;;5492410;26;20258;-86
2024/04/10 05:37:04;;;;;;;13.63;9.30;;;8.70;88.00;;;;;;5490469;26;20699;-85
2024/04/10 05:39:29;;;;;;;15.47;9.50;;;8.80;87.80;;;;;;5492558;26;20661;-86
2024/04/10 05:41:55;;;;;;;19.70;10.87;;;8.80;87.50;;;;;;5492368;26;20303;-85
2024/04/10 05:44:21;;;;;;;11.13;9.53;;;8.90;86.80;;;;;;5492566;26;20636;-86
2024/04/10 05:46:46;;;;;;;16.33;11.20;;;9.00;86.70;;;;;;5492170;26;20694;-86
2024/04/10 05:49:12;;;;;;;16.50;10.93;;;9.00;86.10;;;;;;5492383;26;20223;-85
2024/04/10 05:51:37;;;;;;;13.87;10.53;;;9.00;86.30;;;;;;5492335;26;20296;-86
2024/04/10 05:54:03;;;;;;;18.33;10.90;;;9.00;86.50;;;;;;5490311;26;20227;-86
2024/04/10 05:56:29;;;;;;;19.83;10.63;;;9.00;86.30;;;;;;5492327;26;20223;-85
2024/04/10 05:58:55;;;;;;;14.50;9.10;;;9.00;86.60;;;;;;5492187;26;20261;-88
2024/04/10 06:01:20;;;;;;;17.70;10.20;;;8.90;87.40;;;;;;5492232;26;20219;-86
2024/04/10 06:03:46;;;;;;;14.63;10.07;;;8.80;87.80;;;;;;5490014;26;20323;-86
2024/04/10 06:06:13;;;;;;;15.03;9.10;;;8.80;88.20;;;;;;5490397;26;20219;-87
2024/04/10 06:08:44;;;;;;;15.80;9.37;;;8.80;88.30;;;;;;5490973;26;20219;-87
2024/04/10 06:11:10;;;;;;;19.73;9.27;;;8.80;88.20;;;;;;5490164;26;20207;-86
2024/04/10 06:13:35;;;;;;;15.93;8.93;;;8.80;88.00;;;;;;5491494;26;20223;-87
2024/04/10 06:16:03;;;;;;;14.00;9.93;;;8.80;87.70;;;;;;5491913;26;20257;-86
2024/04/10 06:18:28;;;;;;;13.73;9.80;;;8.80;87.70;;;;;;5491985;26;20318;-88
2024/04/10 06:21:02;;;;;;;10.57;9.47;;;8.80;88.10;;;;;;5492151;26;20215;-87
2024/04/10 06:23:29;;;;;;;21.53;10.37;;;8.80;87.80;;;;;;5491546;26;20223;-86
2024/04/10 06:25:55;;;;;;;16.57;10.97;;;8.90;87.70;;;;;;5491448;26;20213;-87
2024/04/10 06:28:21;;;;;;;13.67;9.70;;;8.90;87.60;;;;;;5491471;26;20289;-87
2024/04/10 06:30:46;;;;;;;11.87;9.73;;;8.90;87.80;;;;;;5491894;26;20215;-86
2024/04/10 06:33:13;;;;;;;14.83;9.37;;;8.90;87.60;;;;;;5491466;26;20231;-85
2024/04/10 06:35:39;;;;;;;15.63;9.43;;;8.90;87.40;;;;;;5491745;26;20776;-86
2024/04/10 06:38:05;;;;;;;18.17;11.53;;;9.10;86.90;;;;;;5489582;26;20223;-86
2024/04/10 06:40:30;;;;;;;24.53;13.27;;;9.20;85.60;;;;;;5491774;26;20583;-86
2024/04/10 06:42:56;;;;;;;19.20;11.90;;;9.30;84.50;;;;;;5491614;26;20239;-86
2024/04/10 06:45:22;;;;;;;14.63;11.93;;;9.40;84.90;;;;;;5491649;26;20207;-87
2024/04/10 06:47:48;;;;;;;20.50;12.23;;;9.40;84.00;;;;;;5491282;26;20323;-87
2024/04/10 06:50:14;;;;;;;21.97;13.57;;;9.50;83.80;;;;;;5489547;26;20215;-86
2024/04/10 06:52:39;;;;;;;14.83;13.27;;;9.50;82.70;;;;;;5489413;26;20332;-85
2024/04/10 06:55:06;;;;;;;17.20;14.77;;;9.60;82.80;;;;;;5491659;26;20262;-86
2024/04/10 06:57:35;;;;;;;17.23;15.53;;;9.60;82.30;;;;;;5491188;26;20258;-86
2024/04/10 07:00:05;;;;;;;25.00;16.03;;;9.60;81.30;;;;;;5491295;26;20340;-86
2024/04/10 07:02:30;;;;;;;17.47;15.83;;;9.70;81.60;;;;;;5491361;26;20602;-86
2024/04/10 07:04:56;;;;;;;18.57;16.57;;;9.70;82.10;;;;;;5489204;26;20219;-86
2024/04/10 07:07:21;;;;;;;19.87;17.70;;;9.70;82.40;;;;;;5491308;26;20605;-87
2024/04/10 07:09:48;;;;;;;19.93;17.80;;;9.60;81.50;;;;;;5491059;26;20257;-86
2024/04/10 07:12:14;;;;;;;18.97;16.90;;;9.60;81.40;;;;;;5489214;26;20215;-86
2024/04/10 07:14:40;;;;;;;18.33;15.67;;;9.60;81.70;;;;;;5491324;26;20224;-86
2024/04/10 07:17:06;;;;;;;22.67;16.03;;;9.40;82.70;;;;;;5489587;26;20241;-87
2024/04/10 07:19:34;;;;;;;18.77;16.13;;;9.50;83.40;;;;;;5489816;26;20262;-87
2024/04/10 07:22:06;;;;;;;21.23;14.80;;;9.40;83.60;;;;;;5491535;26;20261;-87
2024/04/10 07:24:31;;;;;;;17.70;14.80;;;9.30;83.50;;;;;;5491192;26;20267;-85
2024/04/10 07:26:57;;;;;;;22.20;16.13;;;9.40;83.50;;;;;;5490913;26;20215;-87
2024/04/10 07:29:23;;;;;;;25.27;16.80;;;9.50;83.40;;;;;;5491084;26;20223;-87
2024/04/10 07:31:48;;;;;;;20.30;11.13;;;9.60;82.60;;;;;;5491428;26;20223;-87
2024/04/10 07:34:14;;;;;;;17.73;10.50;;;9.60;80.80;;;;;;5491354;26;20585;-87
2024/04/10 07:36:41;;;;;;;19.20;10.33;;;9.70;81.20;;;;;;5488811;26;20242;-86
2024/04/10 07:40:56;;;;;;;11.88;10.60;;;9.80;81.60;;;;;;5547024;25;1173228;-86
2024/04/10 07:43:22;;;;;;;21.57;11.27;;;9.90;79.80;;;;;;5513775;25;20233;-87
2024/04/10 07:45:47;;;;;;;16.50;10.23;;;10.00;79.70;;;;;;5514949;25;20757;-87
2024/04/10 07:48:13;;;;;;;13.40;11.03;;;10.00;79.70;;;;;;5546414;25;20255;-86
2024/04/10 07:50:39;;;;;;;19.60;11.53;;;10.10;79.50;;;;;;5547064;25;20211;-87
2024/04/10 07:53:05;;;;;;;18.97;11.77;;;10.20;79.50;;;;;;5546691;25;20261;-87
2024/04/10 07:55:31;;;;;;;19.43;11.77;;;10.20;78.10;;;;;;5546816;25;20212;-86
2024/04/10 07:57:56;;;;;;;14.03;12.30;;;10.30;77.20;;;;;;5546577;25;20740;-86
2024/04/10 08:00:22;;;;;;;22.50;14.07;;;10.30;77.70;;;;;;5547011;25;20317;-87
2024/04/10 08:02:47;;;;;;;15.87;12.57;;;10.30;75.30;;;;;;5513475;25;20233;-87
2024/04/10 08:05:13;;;;;;;18.13;13.13;;;10.50;76.20;;;;;;5546615;25;20596;-87
2024/04/10 08:07:39;;;;;;;18.50;13.57;;;10.50;76.00;;;;;;5513647;25;20213;-85
2024/04/10 08:10:05;;;;;;;16.40;14.20;;;10.60;76.20;;;;;;5546699;25;20244;-86
2024/04/10 08:12:30;;;;;;;17.67;13.57;;;10.50;75.60;;;;;;5546251;25;20713;-87
2024/04/10 08:14:56;;;;;;;15.30;13.80;;;10.50;75.60;;;;;;5546717;25;20617;-86
2024/04/10 08:17:22;;;;;;;16.47;13.57;;;10.60;75.80;;;;;;5513021;25;20686;-87
2024/04/10 08:19:48;;;;;;;16.20;13.90;;;10.60;75.10;;;;;;5546492;25;20222;-87
2024/04/10 08:22:13;;;;;;;15.47;13.50;;;10.60;74.50;;;;;;5546503;25;20214;-85
2024/04/10 08:24:39;;;;;;;16.90;13.43;;;10.70;74.30;;;;;;5546262;25;20230;-88
2024/04/10 08:27:05;;;;;;;18.83;14.90;;;10.90;75.90;;;;;;5545945;25;20650;-87
2024/04/10 08:29:31;;;;;;;15.37;13.77;;;10.90;75.50;;;;;;5513253;25;20265;-87
2024/04/10 08:31:58;;;;;;;18.33;14.00;;;11.00;76.20;;;;;;5546378;25;20213;-87
2024/04/10 08:34:24;;;;;;;17.37;14.63;;;10.90;74.40;;;;;;5545973;25;20218;-86
2024/04/10 08:36:50;;;;;;;26.23;23.40;;;11.10;75.10;;;;;;5546304;25;20257;-87
2024/04/10 08:39:17;;;;;;;34.13;25.63;;;11.00;75.50;;;;;;5546080;25;20615;-86
2024/04/10 08:41:43;;;;;;;25.93;22.93;;;10.80;75.60;;;;;;5546230;25;20214;-86
2024/04/10 08:44:08;;;;;;;25.20;23.23;;;10.90;76.80;;;;;;5546171;25;20290;-86
2024/04/10 08:46:37;;;;;;;27.70;24.80;;;11.00;77.10;;;;;;5546532;25;20210;-86
2024/04/10 08:49:04;;;;;;;25.97;23.80;;;10.90;76.40;;;;;;5546028;25;20214;-86
2024/04/10 08:51:32;;;;;;;26.27;22.87;;;10.70;75.90;;;;;;5500704;26;20305;-87
2024/04/10 08:53:59;;;;;;;25.00;23.03;;;10.80;77.30;;;;;;5497309;26;20230;-88
2024/04/10 08:56:24;;;;;;;26.60;23.90;;;10.90;76.90;;;;;;5497562;26;20214;-88
2024/04/10 08:58:53;;;;;;;25.90;23.17;;;10.80;76.80;;;;;;5530756;26;20210;-86
2024/04/10 09:01:26;;;;;;;25.97;23.67;;;10.90;76.60;;;;;;5497634;26;20214;-87
2024/04/10 09:03:52;;;;;;;25.50;23.20;;;10.90;76.20;;;;;;5529832;26;20282;-88
2024/04/10 09:06:20;;;;;;;24.37;21.90;;;10.90;75.20;;;;;;5530097;26;20682;-88
2024/04/10 09:08:56;;;;;;;24.40;21.73;;;11.00;76.20;;;;;;5497134;26;20217;-86
2024/04/10 09:11:22;;;;;;;25.57;22.77;;;11.20;76.40;;;;;;5530218;26;20210;-87
2024/04/10 09:13:58;;;;;;;25.53;23.07;;;11.10;76.20;;;;;;5529524;26;20222;-87
2024/04/10 09:16:24;;;;;;;28.17;23.30;;;11.30;76.10;;;;;;5530194;26;20200;-86
2024/04/10 09:18:49;;;;;;;24.03;21.77;;;11.10;75.70;;;;;;5529634;26;20218;-86
2024/04/10 09:21:15;;;;;;;24.97;22.63;;;11.20;76.80;;;;;;5529957;26;20678;-85
2024/04/10 09:23:41;;;;;;;24.77;22.20;;;11.30;75.90;;;;;;5529555;26;20710;-87
2024/04/10 09:26:07;;;;;;;25.93;23.63;;;11.60;76.60;;;;;;5529332;26;20211;-87
2024/04/10 09:28:35;;;;;;;24.80;22.30;;;11.80;74.30;;;;;;5529710;26;20632;-89
2024/04/10 09:31:01;;;;;;;26.20;23.87;;;11.90;74.60;;;;;;5497033;26;20283;-88
2024/04/10 09:33:36;;;;;;;24.87;22.53;;;11.70;72.20;;;;;;5529563;26;20253;-87
2024/04/10 09:36:06;;;;;;;28.03;25.37;;;12.20;73.50;;;;;;5497397;26;20570;-87
2024/04/10 09:38:35;;;;;;;27.33;24.70;;;12.30;72.40;;;;;;5530434;26;20257;-89
2024/04/10 09:41:02;;;;;;;27.80;25.30;;;12.40;72.50;;;;;;5496134;26;20273;-87
2024/04/10 09:43:30;;;;;;;26.80;24.67;;;12.30;72.00;;;;;;5528423;26;20222;-87
2024/04/10 09:45:58;;;;;;;25.63;23.43;;;12.30;71.10;;;;;;5528755;26;20218;-87
2024/04/10 09:48:28;;;;;;;26.83;24.17;;;12.40;69.90;;;;;;5495857;26;20226;-86
2024/04/10 09:50:56;;;;;;;25.90;23.13;;;12.40;70.20;;;;;;5528452;26;20698;-86
2024/04/10 09:53:23;;;;;;;18.97;16.93;;;12.10;71.40;;;;;;5528113;26;20710;-87
2024/04/10 09:55:49;;;;;;;16.70;14.97;;;12.20;72.60;;;;;;5529054;26;20299;-87
2024/04/10 09:58:15;;;;;;;18.37;16.73;;;12.70;72.50;;;;;;5495577;26;20221;-87
2024/04/10 10:00:41;;;;;;;19.20;17.27;;;12.70;71.10;;;;;;5528456;26;20253;-87
2024/04/10 10:03:09;;;;;;;20.37;18.10;;;12.70;69.30;;;;;;5528139;26;20218;-86
2024/04/10 10:05:35;;;;;;;19.83;17.67;;;12.50;70.10;;;;;;5528376;26;20264;-87
2024/04/10 10:08:05;;;;;;;20.57;18.50;;;12.60;70.30;;;;;;5528362;26;20321;-86
2024/04/10 10:10:45;;;;;;;19.50;17.30;;;12.00;70.30;;;;;;5527942;26;20742;-86
2024/04/10 10:13:11;;;;;;;20.90;17.87;;;12.60;72.40;;;;;;5528097;26;20226;-86
2024/04/10 10:15:37;;;;;;;20.40;17.40;;;12.40;70.90;;;;;;5528416;26;20210;-86
2024/04/10 10:18:02;;;;;;;18.10;16.30;;;12.30;71.40;;;;;;5528173;26;20257;-88
2024/04/10 10:20:30;;;;;;;20.37;16.63;;;12.00;72.50;;;;;;5495390;26;20645;-87
2024/04/10 10:23:03;;;;;;;17.57;14.90;;;11.60;72.80;;;;;;5527865;26;20339;-86
2024/04/10 10:25:29;;;;;;;22.67;14.00;;;11.80;76.10;;;;;;5528194;26;20265;-86
2024/04/10 10:28:08;;;;;;;18.80;12.70;;;11.70;77.10;;;;;;5528031;26;20269;-86
2024/04/10 10:30:34;;;;;;;15.37;11.53;;;11.70;79.70;;;;;;5528363;26;20748;-86
2024/04/10 10:33:04;;;;;;;19.63;11.53;;;11.70;78.50;;;;;;5495135;26;20230;-87
2024/04/10 10:35:30;;;;;;;18.30;12.50;;;12.30;78.10;;;;;;5527933;26;20309;-86
2024/04/10 10:37:57;;;;;;;19.13;11.57;;;12.30;76.60;;;;;;5527653;26;20210;-87
2024/04/10 10:40:24;;;;;;;21.57;12.33;;;12.70;77.70;;;;;;5528000;26;20318;-86
2024/04/10 10:42:59;;;;;;;18.40;13.93;;;12.80;73.90;;;;;;5527674;26;20256;-86
2024/04/10 10:45:24;;;;;;;17.37;15.60;;;13.00;73.70;;;;;;5527843;26;20182;-87
2024/04/10 10:47:50;;;;;;;18.83;16.20;;;12.90;71.30;;;;;;5495191;26;20305;-87
2024/04/10 10:50:17;;;;;;;20.27;17.27;;;13.50;71.40;;;;;;5527527;26;20210;-86
2024/04/10 10:52:42;;;;;;;18.23;16.47;;;13.60;69.80;;;;;;5527741;26;20222;-86
2024/04/10 10:55:14;;;;;;;18.17;16.20;;;13.20;70.40;;;;;;5527750;26;20214;-86
2024/04/10 10:57:40;;;;;;;21.57;17.80;;;13.30;70.40;;;;;;5527864;26;20257;-88
2024/04/10 11:00:16;;;;;;;19.50;17.43;;;13.40;72.20;;;;;;5495236;26;20218;-87
2024/04/10 11:02:42;;;;;;;23.43;18.30;;;13.50;68.70;;;;;;5527344;26;20254;-86
2024/04/10 11:05:12;;;;;;;20.47;18.30;;;13.30;66.80;;;;;;5494829;26;20247;-86
2024/04/10 11:07:39;;;;;;;20.23;18.33;;;13.10;67.20;;;;;;5527330;26;20636;-86
2024/04/10 11:10:11;;;;;;;20.20;18.40;;;12.90;68.70;;;;;;5527609;26;20270;-87
2024/04/10 11:12:37;;;;;;;20.03;17.87;;;13.20;67.70;;;;;;5527764;26;20269;-87
2024/04/10 11:15:08;;;;;;;21.07;18.93;;;13.00;67.70;;;;;;5526665;26;20214;-87
2024/04/10 11:17:33;;;;;;;20.87;18.23;;;12.80;66.80;;;;;;5494638;26;20729;-86
2024/04/10 11:19:59;;;;;;;19.53;17.57;;;12.90;67.90;;;;;;5526994;26;20210;-86
2024/04/10 11:22:25;;;;;;;22.73;19.47;;;12.80;69.30;;;;;;5527842;26;20260;-87
2024/04/10 11:24:51;;;;;;;31.83;29.17;;;12.40;68.30;;;;;;5528013;26;20257;-88
2024/04/10 11:27:18;;;;;;;32.73;29.60;;;12.50;71.00;;;;;;5494833;26;20338;-87
2024/04/10 11:29:43;;;;;;;21.23;19.17;;;12.60;70.60;;;;;;5494611;26;20222;-86
2024/04/10 11:32:09;;;;;;;22.93;20.60;;;12.60;70.30;;;;;;5526895;26;20210;-86
2024/04/10 11:34:34;;;;;;;33.07;29.70;;;12.80;70.60;;;;;;5526800;26;20248;-87
2024/04/10 11:37:00;;;;;;;33.70;30.80;;;13.40;71.30;;;;;;5527146;26;20210;-86
2024/04/10 11:39:26;;;;;;;33.80;30.67;;;13.30;67.90;;;;;;5494272;26;20335;-87
2024/04/10 11:41:51;;;;;;;30.67;28.17;;;13.10;65.40;;;;;;5527214;26;20189;-86
2024/04/10 11:44:17;;;;;;;29.10;26.70;;;13.70;68.40;;;;;;5526861;26;20226;-87
2024/04/10 11:46:42;;;;;;;29.63;27.15;;;14.00;68.50;;;;;;5494328;26;20218;-86
2024/04/10 11:49:08;;;;;;;31.92;29.60;;;14.70;65.80;;;;;;5494160;26;20225;-87
2024/04/10 11:51:33;;;;;;;33.63;30.85;;;14.60;65.30;;;;;;5526758;26;20260;-87
2024/04/10 11:53:59;;;;;;;32.72;30.15;;;14.90;64.60;;;;;;5526392;26;20574;-86
2024/04/10 11:56:24;;;;;;;34.85;32.05;;;14.30;63.20;;;;;;5494160;26;20214;-89
2024/04/10 11:58:51;;;;;;;35.58;32.78;;;14.30;64.50;;;;;;5494456;26;20569;-87
2024/04/10 12:01:16;;;;;;;33.72;30.77;;;14.30;63.00;;;;;;5494020;26;20369;-90
2024/04/10 12:03:42;;;;;;;33.70;31.05;;;14.60;65.90;;;;;;5494622;26;20233;-88
2024/04/10 12:06:08;;;;;;;32.90;29.50;;;15.20;65.20;;;;;;5495738;26;20222;-85
2024/04/10 12:08:34;;;;;;;23.13;21.00;;;14.60;62.60;;;;;;5526887;26;20406;-89
2024/04/10 12:11:04;;;;;;;23.30;21.23;;;14.20;63.40;;;;;;5494873;26;20222;-87
2024/04/10 12:13:29;;;;;;;24.35;22.02;;;14.30;62.80;;;;;;5527256;26;20565;-86
2024/04/10 12:15:55;;;;;;;24.10;21.52;;;13.80;65.00;;;;;;5494055;26;20248;-87
2024/04/10 12:18:20;;;;;;;24.15;21.60;;;14.30;63.80;;;;;;5526016;26;20257;-90
2024/04/10 12:20:46;;;;;;;23.25;20.90;;;14.40;63.90;;;;;;5527564;26;20215;-85
2024/04/10 12:23:11;;;;;;;23.95;21.48;;;14.40;64.20;;;;;;5493357;26;20326;-87
2024/04/10 12:25:37;;;;;;;23.88;21.48;;;13.90;66.70;;;;;;5527920;26;20275;-87
2024/04/10 12:28:03;;;;;;;24.17;21.63;;;14.50;65.10;;;;;;5529715;26;20221;-87
2024/04/10 12:30:29;;;;;;;23.77;21.55;;;14.50;65.50;;;;;;5529862;26;20252;-87
2024/04/10 12:32:54;;;;;;;24.73;22.02;;;14.20;66.20;;;;;;5497444;26;20709;-90